createdAt,value
2018-09-18T00:00:16.182Z,15.22
2018-09-18T00:01:16.168Z,15.17
2018-09-18T00:02:16.159Z,15.21
2018-09-18T00:03:16.159Z,15.14
2018-09-18T00:04:16.139Z,15.18
2018-09-18T00:05:16.122Z,15.18
2018-09-18T00:06:16.118Z,15.25
2018-09-18T00:07:16.104Z,15.25
2018-09-18T00:08:16.109Z,15.31
2018-09-18T00:09:16.081Z,15.36
2018-09-18T00:10:16.072Z,15.36
2018-09-18T00:11:16.054Z,15.36
2018-09-18T00:12:16.050Z,15.43
2018-09-18T00:13:16.052Z,15.44
2018-09-18T00:14:16.023Z,15.44
2018-09-18T00:15:16.019Z,15.46
2018-09-18T00:16:16.006Z,15.49
2018-09-18T00:17:15.993Z,15.49
2018-09-18T00:18:15.995Z,15.49
2018-09-18T00:19:15.975Z,15.46
2018-09-18T00:20:15.962Z,15.37
2018-09-18T00:21:15.951Z,15.31
2018-09-18T00:22:15.945Z,15.37
2018-09-18T00:23:15.943Z,15.43
2018-09-18T00:24:15.916Z,15.51
2018-09-18T00:25:15.909Z,15.55
2018-09-18T00:26:15.893Z,15.73
2018-09-18T00:27:15.907Z,15.70
2018-09-18T00:28:15.878Z,15.77
2018-09-18T00:29:15.882Z,15.75
2018-09-18T00:30:15.856Z,15.72
2018-09-18T00:31:15.839Z,15.73
2018-09-18T00:32:15.831Z,15.73
2018-09-18T00:33:15.839Z,15.68
2018-09-18T00:34:15.815Z,15.67
2018-09-18T00:35:15.810Z,15.57
2018-09-18T00:36:15.787Z,15.57
2018-09-18T00:37:15.777Z,15.57
2018-09-18T00:38:15.782Z,15.62
2018-09-18T00:39:15.760Z,15.68
2018-09-18T00:40:15.747Z,15.76
2018-09-18T00:41:15.737Z,15.73
2018-09-18T00:42:15.731Z,15.77
2018-09-18T00:43:15.727Z,15.86
2018-09-18T00:44:15.701Z,16.01
2018-09-18T00:45:15.690Z,16.20
2018-09-18T00:46:15.683Z,16.24
2018-09-18T00:47:15.673Z,16.36
2018-09-18T00:48:15.684Z,16.54
2018-09-18T00:49:15.648Z,16.72
2018-09-18T00:50:15.634Z,16.90
2018-09-18T00:51:15.630Z,17.04
2018-09-18T00:52:15.630Z,17.14
2018-09-18T00:53:15.609Z,17.27
2018-09-18T00:54:15.616Z,17.36
2018-09-18T00:55:15.580Z,17.49
2018-09-18T00:56:15.592Z,17.60
2018-09-18T00:57:15.561Z,17.78
2018-09-18T00:58:15.548Z,17.86
2018-09-18T00:59:15.577Z,18.01
2018-09-18T01:00:15.534Z,18.05
2018-09-18T01:01:15.522Z,18.23
2018-09-18T01:02:15.511Z,18.40
2018-09-18T01:03:15.494Z,18.49
2018-09-18T01:04:15.496Z,18.43
2018-09-18T01:05:15.494Z,18.53
2018-09-18T01:06:15.469Z,18.58
2018-09-18T01:07:15.477Z,18.52
2018-09-18T01:08:15.441Z,18.60
2018-09-18T01:09:15.431Z,18.70
2018-09-18T01:10:15.436Z,18.77
2018-09-18T01:11:15.416Z,18.83
2018-09-18T01:12:15.404Z,18.84
2018-09-18T01:13:15.414Z,18.81
2018-09-18T01:14:15.381Z,18.86
2018-09-18T01:15:15.363Z,18.84
2018-09-18T01:16:15.357Z,18.86
2018-09-18T01:17:15.343Z,18.96
2018-09-18T01:18:15.346Z,18.99
2018-09-18T01:19:15.326Z,19.12
2018-09-18T01:20:15.315Z,19.08
2018-09-18T01:21:15.325Z,19.14
2018-09-18T01:22:15.309Z,19.12
2018-09-18T01:23:15.283Z,19.07
2018-09-18T01:24:15.269Z,19.09
2018-09-18T01:25:15.263Z,19.09
2018-09-18T01:26:15.250Z,19.16
2018-09-18T01:27:15.251Z,19.09
2018-09-18T01:28:15.224Z,19.12
2018-09-18T01:29:15.214Z,19.11
2018-09-18T01:30:15.204Z,18.98
2018-09-18T01:31:15.195Z,18.99
2018-09-18T01:32:15.209Z,18.92
2018-09-18T01:33:15.190Z,18.93
2018-09-18T01:34:15.165Z,18.81
2018-09-18T01:35:15.147Z,18.96
2018-09-18T01:36:15.139Z,18.92
2018-09-18T01:37:15.130Z,18.90
2018-09-18T01:38:15.156Z,18.95
2018-09-18T01:39:15.107Z,18.86
2018-09-18T01:40:15.141Z,18.92
2018-09-18T01:41:15.089Z,18.93
2018-09-18T01:42:15.095Z,18.88
2018-09-18T01:43:15.073Z,18.78
2018-09-18T01:44:15.055Z,18.73
2018-09-18T01:45:15.073Z,18.73
2018-09-18T01:46:15.031Z,18.78
2018-09-18T01:47:15.023Z,18.70
2018-09-18T01:48:15.018Z,18.81
2018-09-18T01:49:15.007Z,18.77
2018-09-18T01:50:14.991Z,18.73
2018-09-18T01:51:14.994Z,18.73
2018-09-18T01:52:14.982Z,18.68
2018-09-18T01:53:14.966Z,18.70
2018-09-18T01:54:14.947Z,18.68
2018-09-18T01:55:14.936Z,18.60
2018-09-18T01:56:14.938Z,18.73
2018-09-18T01:57:14.953Z,18.77
2018-09-18T01:58:14.933Z,18.75
2018-09-18T01:59:14.918Z,18.75
2018-09-18T02:00:14.885Z,18.68
2018-09-18T02:01:14.874Z,18.73
2018-09-18T02:02:14.861Z,18.60
2018-09-18T02:03:14.871Z,18.68
2018-09-18T02:04:14.834Z,18.63
2018-09-18T02:05:14.826Z,18.58
2018-09-18T02:06:14.816Z,18.53
2018-09-18T02:07:14.820Z,18.56
2018-09-18T02:08:14.798Z,18.58
2018-09-18T02:09:14.797Z,18.55
2018-09-18T02:10:14.774Z,18.53
2018-09-18T02:11:14.764Z,18.47
2018-09-18T02:12:14.755Z,18.53
2018-09-18T02:13:14.763Z,18.56
2018-09-18T02:14:14.753Z,18.49
2018-09-18T02:15:14.721Z,18.59
2018-09-18T02:16:14.705Z,18.60
2018-09-18T02:17:14.694Z,18.60
2018-09-18T02:18:14.685Z,18.63
2018-09-18T02:19:14.702Z,18.62
2018-09-18T02:20:14.669Z,18.66
2018-09-18T02:21:14.658Z,18.60
2018-09-18T02:22:14.647Z,18.70
2018-09-18T02:23:14.649Z,18.88
2018-09-18T02:24:14.631Z,18.84
2018-09-18T02:25:14.615Z,18.84
2018-09-18T02:26:14.627Z,18.74
2018-09-18T02:27:14.590Z,18.86
2018-09-18T02:28:14.577Z,18.73
2018-09-18T02:29:14.565Z,18.71
2018-09-18T02:30:14.557Z,18.73
2018-09-18T02:31:14.548Z,18.84
2018-09-18T02:32:14.558Z,18.84
2018-09-18T02:33:14.530Z,18.83
2018-09-18T02:34:14.517Z,18.84
2018-09-18T02:35:14.521Z,18.86
2018-09-18T02:36:14.489Z,18.84
2018-09-18T02:37:14.491Z,18.88
2018-09-18T02:38:14.494Z,18.95
2018-09-18T02:39:14.462Z,18.96
2018-09-18T02:40:14.454Z,19.07
2018-09-18T02:41:14.439Z,19.08
2018-09-18T02:42:14.427Z,19.04
2018-09-18T02:43:14.453Z,19.09
2018-09-18T02:44:14.410Z,19.14
2018-09-18T02:45:14.400Z,19.16
2018-09-18T02:46:14.409Z,19.21
2018-09-18T02:47:14.376Z,19.22
2018-09-18T02:48:14.361Z,19.24
2018-09-18T02:49:14.388Z,19.15
2018-09-18T02:50:14.363Z,19.26
2018-09-18T02:51:14.355Z,19.16
2018-09-18T02:52:14.326Z,19.24
2018-09-18T02:53:14.315Z,19.31
2018-09-18T02:54:14.320Z,19.36
2018-09-18T02:55:14.289Z,19.41
2018-09-18T02:56:14.276Z,19.45
2018-09-18T02:57:14.275Z,19.44
2018-09-18T02:58:14.259Z,19.41
2018-09-18T02:59:14.246Z,19.45
2018-09-18T03:00:14.251Z,19.58
2018-09-18T03:01:14.223Z,19.54
2018-09-18T03:02:14.235Z,19.56
2018-09-18T03:03:14.207Z,19.64
2018-09-18T03:04:14.197Z,19.69
2018-09-18T03:05:14.186Z,19.67
2018-09-18T03:06:14.191Z,19.69
2018-09-18T03:07:14.179Z,19.67
2018-09-18T03:08:14.149Z,19.64
2018-09-18T03:09:14.139Z,19.73
2018-09-18T03:10:14.130Z,19.74
2018-09-18T03:11:14.149Z,19.67
2018-09-18T03:12:14.115Z,19.66
2018-09-18T03:13:14.127Z,19.70
2018-09-18T03:14:14.088Z,19.71
2018-09-18T03:15:14.078Z,19.74
2018-09-18T03:16:14.070Z,19.63
2018-09-18T03:17:14.060Z,19.69
2018-09-18T03:18:14.068Z,19.66
2018-09-18T03:19:14.034Z,19.62
2018-09-18T03:20:14.021Z,19.64
2018-09-18T03:21:14.014Z,19.56
2018-09-18T03:22:14.001Z,19.58
2018-09-18T03:23:14.018Z,19.59
2018-09-18T03:24:13.988Z,19.58
2018-09-18T03:25:13.975Z,19.55
2018-09-18T03:26:13.963Z,19.62
2018-09-18T03:27:13.984Z,19.64
2018-09-18T03:28:13.935Z,19.62
2018-09-18T03:29:13.949Z,19.67
2018-09-18T03:30:13.918Z,19.71
2018-09-18T03:31:13.932Z,19.67
2018-09-18T03:32:13.892Z,19.67
2018-09-18T03:33:13.899Z,19.63
2018-09-18T03:34:13.871Z,19.58
2018-09-18T03:35:13.863Z,19.54
2018-09-18T03:36:13.856Z,19.55
2018-09-18T03:37:13.845Z,19.66
2018-09-18T03:38:13.850Z,19.63
2018-09-18T03:39:13.845Z,19.69
2018-09-18T03:40:13.808Z,19.63
2018-09-18T03:41:13.794Z,19.63
2018-09-18T03:42:13.784Z,19.64
2018-09-18T03:43:13.776Z,19.73
2018-09-18T03:44:13.767Z,19.66
2018-09-18T03:45:13.772Z,19.73
2018-09-18T03:46:13.741Z,19.63
2018-09-18T03:47:13.737Z,19.79
2018-09-18T03:48:13.723Z,19.82
2018-09-18T03:49:13.737Z,19.73
2018-09-18T03:50:13.717Z,19.91
2018-09-18T03:51:13.687Z,19.86
2018-09-18T03:52:13.677Z,19.92
2018-09-18T03:53:13.663Z,20.09
2018-09-18T03:54:13.678Z,20.02
2018-09-18T03:55:13.669Z,20.10
2018-09-18T03:56:13.638Z,20.07
2018-09-18T03:57:13.631Z,20.09
2018-09-18T03:58:13.633Z,20.13
2018-09-18T03:59:13.600Z,20.24
2018-09-18T04:00:13.604Z,20.22
2018-09-18T04:01:13.591Z,20.21
2018-09-18T04:02:13.573Z,20.19
2018-09-18T04:03:13.575Z,20.16
2018-09-18T04:04:13.563Z,20.24
2018-09-18T04:05:13.534Z,20.21
2018-09-18T04:06:13.526Z,20.19
2018-09-18T04:07:13.517Z,20.21
2018-09-18T04:08:13.511Z,20.22
2018-09-18T04:09:13.503Z,20.21
2018-09-18T04:10:13.512Z,20.16
2018-09-18T04:11:13.469Z,20.36
2018-09-18T04:12:13.456Z,20.22
2018-09-18T04:13:13.464Z,20.26
2018-09-18T04:14:13.439Z,20.22
2018-09-18T04:15:13.429Z,20.26
2018-09-18T04:16:13.420Z,20.19
2018-09-18T04:17:13.410Z,20.21
2018-09-18T04:18:13.414Z,20.24
2018-09-18T04:19:13.385Z,20.26
2018-09-18T04:20:13.377Z,20.22
2018-09-18T04:21:13.364Z,20.28
2018-09-18T04:22:13.354Z,20.28
2018-09-18T04:23:13.360Z,20.29
2018-09-18T04:24:13.325Z,20.22
2018-09-18T04:25:13.313Z,20.28
2018-09-18T04:26:13.323Z,20.36
2018-09-18T04:27:13.297Z,20.39
2018-09-18T04:28:13.289Z,20.34
2018-09-18T04:29:13.278Z,20.37
2018-09-18T04:30:13.268Z,20.32
2018-09-18T04:31:13.267Z,20.36
2018-09-18T04:32:13.250Z,20.22
2018-09-18T04:33:13.252Z,20.31
2018-09-18T04:34:13.230Z,20.39
2018-09-18T04:35:13.207Z,20.31
2018-09-18T04:36:13.193Z,20.47
2018-09-18T04:37:13.184Z,20.47
2018-09-18T04:38:13.190Z,20.58
2018-09-18T04:39:13.165Z,20.43
2018-09-18T04:40:13.155Z,20.47
2018-09-18T04:41:13.144Z,20.51
2018-09-18T04:42:13.131Z,20.48
2018-09-18T04:43:13.135Z,20.41
2018-09-18T04:44:13.122Z,20.48
2018-09-18T04:45:13.094Z,20.41
2018-09-18T04:46:13.087Z,20.39
2018-09-18T04:47:13.109Z,20.34
2018-09-18T04:48:13.111Z,20.36
2018-09-18T04:49:13.051Z,20.37
2018-09-18T04:50:13.041Z,20.32
2018-09-18T04:51:13.042Z,20.32
2018-09-18T04:52:13.024Z,20.32
2018-09-18T04:53:13.018Z,20.28
2018-09-18T04:54:13.023Z,20.22
2018-09-18T04:55:12.994Z,20.22
2018-09-18T04:56:12.972Z,20.28
2018-09-18T04:57:12.976Z,20.34
2018-09-18T04:58:12.954Z,20.34
2018-09-18T04:59:12.965Z,20.36
2018-09-18T05:00:12.936Z,20.29
2018-09-18T05:01:12.926Z,20.36
2018-09-18T05:02:13.003Z,20.40
2018-09-18T05:03:12.899Z,20.44
2018-09-18T05:04:12.904Z,20.34
2018-09-18T05:05:12.880Z,20.31
2018-09-18T05:06:12.868Z,20.32
2018-09-18T05:07:12.865Z,20.43
2018-09-18T05:08:12.871Z,20.41
2018-09-18T05:09:12.913Z,20.47
2018-09-18T05:10:12.820Z,20.51
2018-09-18T05:11:12.818Z,20.44
2018-09-18T05:12:12.809Z,20.41
2018-09-18T05:13:12.792Z,20.32
2018-09-18T05:14:12.797Z,20.47
2018-09-18T05:15:12.768Z,20.51
2018-09-18T05:16:12.750Z,20.43
2018-09-18T05:17:12.744Z,20.44
2018-09-18T05:18:12.748Z,20.52
2018-09-18T05:19:12.740Z,20.56
2018-09-18T05:20:12.721Z,20.63
2018-09-18T05:21:12.697Z,20.59
2018-09-18T05:22:12.696Z,20.56
2018-09-18T05:23:12.696Z,20.70
2018-09-18T05:24:12.688Z,20.60
2018-09-18T05:25:12.679Z,20.63
2018-09-18T05:26:12.646Z,20.55
2018-09-18T05:27:12.638Z,20.58
2018-09-18T05:28:12.680Z,20.62
2018-09-18T05:29:12.664Z,20.59
2018-09-18T05:30:12.682Z,20.56
2018-09-18T05:31:12.590Z,20.59
2018-09-18T05:32:12.584Z,20.56
2018-09-18T05:33:12.594Z,20.62
2018-09-18T05:34:12.617Z,20.56
2018-09-18T05:35:12.544Z,20.59
2018-09-18T05:36:12.537Z,20.58
2018-09-18T05:37:12.527Z,20.55
2018-09-18T05:38:12.531Z,20.60
2018-09-18T05:39:12.720Z,20.52
2018-09-18T05:40:12.610Z,20.58
2018-09-18T05:41:12.475Z,20.52
2018-09-18T05:42:12.468Z,20.62
2018-09-18T05:43:12.458Z,20.58
2018-09-18T05:44:12.449Z,20.58
2018-09-18T05:45:12.460Z,20.66
2018-09-18T05:46:12.424Z,20.63
2018-09-18T05:47:12.411Z,20.60
2018-09-18T05:48:12.555Z,20.59
2018-09-18T05:49:12.389Z,20.67
2018-09-18T05:50:12.388Z,20.74
2018-09-18T05:51:12.444Z,20.65
2018-09-18T05:52:12.397Z,20.72
2018-09-18T05:53:12.369Z,20.69
2018-09-18T05:54:12.396Z,20.72
2018-09-18T05:55:12.352Z,20.67
2018-09-18T05:56:12.316Z,20.69
2018-09-18T05:57:12.313Z,20.69
2018-09-18T05:58:12.293Z,20.67
2018-09-18T05:59:12.298Z,20.74
2018-09-18T06:00:12.267Z,20.66
2018-09-18T06:01:12.263Z,20.69
2018-09-18T06:02:12.299Z,20.72
2018-09-18T06:03:12.239Z,20.70
2018-09-18T06:04:12.253Z,20.67
2018-09-18T06:05:12.224Z,20.69
2018-09-18T06:06:12.205Z,20.56
2018-09-18T06:07:12.232Z,20.55
2018-09-18T06:08:12.178Z,20.50
2018-09-18T06:09:12.178Z,20.51
2018-09-18T06:10:12.195Z,20.48
2018-09-18T06:11:12.193Z,20.43
2018-09-18T06:12:12.135Z,20.44
2018-09-18T06:13:12.190Z,20.43
2018-09-18T06:14:12.118Z,20.40
2018-09-18T06:15:12.141Z,20.47
2018-09-18T06:16:12.098Z,20.47
2018-09-18T06:17:12.090Z,20.47
2018-09-18T06:18:12.110Z,20.48
2018-09-18T06:19:12.138Z,20.47
2018-09-18T06:20:12.074Z,20.48
2018-09-18T06:21:12.038Z,20.41
2018-09-18T06:22:12.037Z,20.47
2018-09-18T06:23:12.053Z,20.48
2018-09-18T06:24:12.025Z,20.59
2018-09-18T06:25:11.995Z,20.62
2018-09-18T06:26:12.015Z,20.69
2018-09-18T06:27:11.979Z,20.67
2018-09-18T06:28:11.964Z,20.70
2018-09-18T06:29:11.980Z,20.70
2018-09-18T06:30:11.950Z,20.74
2018-09-18T06:31:11.967Z,20.72
2018-09-18T06:32:11.982Z,20.72
2018-09-18T06:33:11.935Z,20.77
2018-09-18T06:34:11.979Z,20.87
2018-09-18T06:35:12.308Z,20.97
2018-09-18T06:36:11.880Z,20.85
2018-09-18T06:37:11.864Z,20.97
2018-09-18T06:38:11.875Z,20.97
2018-09-18T06:39:11.837Z,20.97
2018-09-18T06:40:11.829Z,20.97
2018-09-18T06:41:11.821Z,21.03
2018-09-18T06:42:11.873Z,21.09
2018-09-18T06:43:11.823Z,21.15
2018-09-18T06:44:11.787Z,21.22
2018-09-18T06:45:11.779Z,21.17
2018-09-18T06:46:11.764Z,21.20
2018-09-18T06:47:11.760Z,21.20
2018-09-18T06:48:11.763Z,21.17
2018-09-18T06:49:11.743Z,21.24
2018-09-18T06:50:11.758Z,21.32
2018-09-18T06:51:11.709Z,21.22
2018-09-18T06:52:11.735Z,21.24
2018-09-18T06:53:11.733Z,21.27
2018-09-18T06:54:11.678Z,21.33
2018-09-18T06:55:11.691Z,21.39
2018-09-18T06:56:11.660Z,21.32
2018-09-18T06:57:11.655Z,21.32
2018-09-18T06:58:11.674Z,21.35
2018-09-18T06:59:11.630Z,21.40
2018-09-18T07:00:11.695Z,21.45
2018-09-18T07:01:11.637Z,21.54
2018-09-18T07:02:11.669Z,21.50
2018-09-18T07:03:11.621Z,21.57
2018-09-18T07:04:11.571Z,21.60
2018-09-18T07:05:11.577Z,21.61
2018-09-18T07:06:11.566Z,21.75
2018-09-18T07:07:11.545Z,21.75
2018-09-18T07:08:11.545Z,21.75
2018-09-18T07:09:11.523Z,21.80
2018-09-18T07:10:11.515Z,21.91
2018-09-18T07:11:11.516Z,21.88
2018-09-18T07:12:11.494Z,22.02
2018-09-18T07:13:11.531Z,21.98
2018-09-18T07:14:11.524Z,22.10
2018-09-18T07:15:11.452Z,22.02
2018-09-18T07:16:11.461Z,22.02
2018-09-18T07:17:11.431Z,22.04
2018-09-18T07:18:11.491Z,22.02
2018-09-18T07:19:11.415Z,22.20
2018-09-18T07:20:11.407Z,22.13
2018-09-18T07:21:11.420Z,22.20
2018-09-18T07:22:11.433Z,22.28
2018-09-18T07:23:11.413Z,22.28
2018-09-18T07:24:11.416Z,22.39
2018-09-18T07:25:11.406Z,22.43
2018-09-18T07:26:11.431Z,22.50
2018-09-18T07:27:11.352Z,22.59
2018-09-18T07:28:11.364Z,22.60
2018-09-18T07:29:11.304Z,22.68
2018-09-18T07:30:11.304Z,22.62
2018-09-18T07:31:11.303Z,22.76
2018-09-18T07:32:11.313Z,22.85
2018-09-18T07:33:11.281Z,22.81
2018-09-18T07:34:11.298Z,22.88
2018-09-18T07:35:11.319Z,22.88
2018-09-18T07:36:11.471Z,22.96
2018-09-18T07:37:11.255Z,22.96
2018-09-18T07:38:11.269Z,22.96
2018-09-18T07:39:11.271Z,23.09
2018-09-18T07:40:11.198Z,23.15
2018-09-18T07:41:11.289Z,23.32
2018-09-18T07:42:11.198Z,23.32
2018-09-18T07:43:11.203Z,23.41
2018-09-18T07:44:11.180Z,23.48
2018-09-18T07:45:11.138Z,23.55
2018-09-18T07:46:11.132Z,23.68
2018-09-18T07:47:11.123Z,23.78
2018-09-18T07:48:11.180Z,23.84
2018-09-18T07:49:11.116Z,23.86
2018-09-18T07:50:11.078Z,23.99
2018-09-18T07:51:11.085Z,24.11
2018-09-18T07:52:11.092Z,24.20
2018-09-18T07:53:11.050Z,24.30
2018-09-18T07:54:11.062Z,24.36
2018-09-18T07:55:11.029Z,24.45
2018-09-18T07:56:11.058Z,24.60
2018-09-18T07:57:11.003Z,24.57
2018-09-18T07:58:11.008Z,24.55
2018-09-18T07:59:11.014Z,24.69
2018-09-18T08:00:10.974Z,24.77
2018-09-18T08:01:10.960Z,24.80
2018-09-18T08:02:10.999Z,24.95
2018-09-18T08:03:10.974Z,24.95
2018-09-18T08:04:10.954Z,25.14
2018-09-18T08:05:10.919Z,25.29
2018-09-18T08:06:10.920Z,25.38
2018-09-18T08:07:10.943Z,25.36
2018-09-18T08:08:10.905Z,25.53
2018-09-18T08:09:10.930Z,25.58
2018-09-18T08:10:10.906Z,25.62
2018-09-18T08:11:10.919Z,25.68
2018-09-18T08:12:10.881Z,25.77
2018-09-18T08:13:10.877Z,25.83
2018-09-18T08:14:10.857Z,25.93
2018-09-18T08:15:10.818Z,26.05
2018-09-18T08:16:10.856Z,26.02
2018-09-18T08:17:10.851Z,25.98
2018-09-18T08:18:10.782Z,26.06
2018-09-18T08:19:10.811Z,25.99
2018-09-18T08:20:10.758Z,26.18
2018-09-18T08:21:10.748Z,26.16
2018-09-18T08:22:10.811Z,26.28
2018-09-18T08:23:10.750Z,26.52
2018-09-18T08:24:10.762Z,26.51
2018-09-18T08:25:10.748Z,26.60
2018-09-18T08:26:10.704Z,26.66
2018-09-18T08:27:10.700Z,26.70
2018-09-18T08:28:10.681Z,26.83
2018-09-18T08:29:10.669Z,26.84
2018-09-18T08:30:10.656Z,26.93
2018-09-18T08:31:10.693Z,27.00
2018-09-18T08:32:10.706Z,26.99
2018-09-18T08:33:10.706Z,27.08
2018-09-18T08:34:10.676Z,27.10
2018-09-18T08:35:10.689Z,27.12
2018-09-18T08:36:10.653Z,27.21
2018-09-18T08:37:10.783Z,27.29
2018-09-18T08:38:10.570Z,27.26
2018-09-18T08:39:10.580Z,27.26
2018-09-18T08:40:10.683Z,27.33
2018-09-18T08:41:10.534Z,27.25
2018-09-18T08:42:10.572Z,27.40
2018-09-18T08:43:10.555Z,27.42
2018-09-18T08:44:10.594Z,27.52
2018-09-18T08:45:10.492Z,27.59
2018-09-18T08:46:10.552Z,27.58
2018-09-18T08:47:10.528Z,27.58
2018-09-18T08:48:10.496Z,27.65
2018-09-18T08:49:10.532Z,27.67
2018-09-18T08:50:10.462Z,27.73
2018-09-18T08:51:10.460Z,27.75
2018-09-18T08:52:10.566Z,27.85
2018-09-18T08:53:10.473Z,27.82
2018-09-18T08:54:10.440Z,27.96
2018-09-18T08:55:10.448Z,28.00
2018-09-18T08:56:10.380Z,28.10
2018-09-18T08:57:10.372Z,28.11
2018-09-18T08:58:10.427Z,28.19
2018-09-18T08:59:10.399Z,28.20
2018-09-18T09:00:10.355Z,28.20
2018-09-18T09:01:10.410Z,28.35
2018-09-18T09:02:10.369Z,28.45
2018-09-18T09:03:10.359Z,28.54
2018-09-18T09:04:10.317Z,28.57
2018-09-18T09:05:10.313Z,28.60
2018-09-18T09:06:10.311Z,28.59
2018-09-18T09:07:10.266Z,28.60
2018-09-18T09:08:10.375Z,28.63
2018-09-18T09:09:10.297Z,28.59
2018-09-18T09:10:10.330Z,28.75
2018-09-18T09:11:10.241Z,28.79
2018-09-18T09:12:10.219Z,28.84
2018-09-18T09:13:10.314Z,28.86
2018-09-18T09:14:10.187Z,28.91
2018-09-18T09:15:10.238Z,28.88
2018-09-18T09:16:10.183Z,28.96
2018-09-18T09:17:10.176Z,29.07
2018-09-18T09:18:10.268Z,29.13
2018-09-18T09:19:10.375Z,29.20
2018-09-18T09:20:10.173Z,29.20
2018-09-18T09:21:10.347Z,29.26
2018-09-18T09:22:10.193Z,29.24
2018-09-18T09:23:10.126Z,29.12
2018-09-18T09:24:10.119Z,29.20
2018-09-18T09:25:10.118Z,29.29
2018-09-18T09:26:10.294Z,29.23
2018-09-18T09:27:10.113Z,29.39
2018-09-18T09:28:10.063Z,29.44
2018-09-18T09:29:10.034Z,29.44
2018-09-18T09:30:10.065Z,29.49
2018-09-18T09:31:10.032Z,29.56
2018-09-18T09:32:10.027Z,29.38
2018-09-18T09:33:10.019Z,29.17
2018-09-18T09:34:09.975Z,29.17
2018-09-18T09:35:09.977Z,29.19
2018-09-18T09:36:09.992Z,29.14
2018-09-18T09:37:10.074Z,29.36
2018-09-18T09:38:09.971Z,29.42
2018-09-18T09:39:10.006Z,29.49
2018-09-18T09:40:09.924Z,29.42
2018-09-18T09:41:09.953Z,29.39
2018-09-18T09:42:09.898Z,29.36
2018-09-18T09:43:09.897Z,29.27
2018-09-18T09:44:09.874Z,29.27
2018-09-18T09:45:09.909Z,29.31
2018-09-18T09:46:09.847Z,29.38
2018-09-18T09:47:09.844Z,29.42
2018-09-18T09:48:09.849Z,29.57
2018-09-18T09:49:09.822Z,29.61
2018-09-18T09:50:09.812Z,29.66
2018-09-18T09:51:09.821Z,29.68
2018-09-18T09:52:09.787Z,29.51
2018-09-18T09:53:09.797Z,29.41
2018-09-18T09:54:09.774Z,29.44
2018-09-18T09:55:09.763Z,29.32
2018-09-18T09:56:09.744Z,29.41
2018-09-18T09:57:09.735Z,29.38
2018-09-18T09:58:09.740Z,29.59
2018-09-18T09:59:09.717Z,29.73
2018-09-18T10:00:09.705Z,29.73
2018-09-18T10:01:09.714Z,29.65
2018-09-18T10:02:09.727Z,29.61
2018-09-18T10:03:09.686Z,29.53
2018-09-18T10:04:09.665Z,29.50
2018-09-18T10:05:09.651Z,29.47
2018-09-18T10:06:09.640Z,29.47
2018-09-18T10:07:09.634Z,29.50
2018-09-18T10:08:09.653Z,29.50
2018-09-18T10:09:09.635Z,29.56
2018-09-18T10:10:09.612Z,29.50
2018-09-18T10:11:09.616Z,29.61
2018-09-18T10:12:09.628Z,29.68
2018-09-18T10:13:09.607Z,29.65
2018-09-18T10:14:09.561Z,29.69
2018-09-18T10:15:09.570Z,29.73
2018-09-18T10:16:09.537Z,29.73
2018-09-18T10:17:09.524Z,29.79
2018-09-18T10:18:09.619Z,29.69
2018-09-18T10:19:09.527Z,29.73
2018-09-18T10:20:09.494Z,29.72
2018-09-18T10:21:09.486Z,29.68
2018-09-18T10:22:09.534Z,29.63
2018-09-18T10:23:09.545Z,29.59
2018-09-18T10:24:09.537Z,29.53
2018-09-18T10:25:09.462Z,29.73
2018-09-18T10:26:09.486Z,29.79
2018-09-18T10:27:09.566Z,29.87
2018-09-18T10:28:09.430Z,29.87
2018-09-18T10:29:09.416Z,30.03
2018-09-18T10:30:09.398Z,30.10
2018-09-18T10:31:09.395Z,30.30
2018-09-18T10:32:09.386Z,30.23
2018-09-18T10:33:09.355Z,30.06
2018-09-18T10:34:09.363Z,30.06
2018-09-18T10:35:09.345Z,29.95
2018-09-18T10:36:09.378Z,29.94
2018-09-18T10:37:09.315Z,30.02
2018-09-18T10:38:09.327Z,30.12
2018-09-18T10:39:09.290Z,30.05
2018-09-18T10:40:09.309Z,30.03
2018-09-18T10:41:09.424Z,29.93
2018-09-18T10:42:09.324Z,29.79
2018-09-18T10:43:09.287Z,29.76
2018-09-18T10:44:09.323Z,29.90
2018-09-18T10:45:09.236Z,30.03
2018-09-18T10:46:09.221Z,30.15
2018-09-18T10:47:09.213Z,30.23
2018-09-18T10:48:09.234Z,30.23
2018-09-18T10:49:09.208Z,30.25
2018-09-18T10:50:09.181Z,30.34
2018-09-18T10:51:09.163Z,30.12
2018-09-18T10:52:09.157Z,30.10
2018-09-18T10:53:09.148Z,30.32
2018-09-18T10:54:09.153Z,30.21
2018-09-18T10:55:09.129Z,30.21
2018-09-18T10:56:09.138Z,30.37
2018-09-18T10:57:09.125Z,30.39
2018-09-18T10:58:09.096Z,30.46
2018-09-18T10:59:09.107Z,30.54
2018-09-18T11:00:09.118Z,30.47
2018-09-18T11:01:09.094Z,30.53
2018-09-18T11:02:09.226Z,30.46
2018-09-18T11:03:09.038Z,30.46
2018-09-18T11:04:09.096Z,30.47
2018-09-18T11:05:09.071Z,30.50
2018-09-18T11:06:09.046Z,30.53
2018-09-18T11:07:09.085Z,30.50
2018-09-18T11:08:08.990Z,30.18
2018-09-18T11:09:09.037Z,30.05
2018-09-18T11:10:09.068Z,30.16
2018-09-18T11:11:08.953Z,30.32
2018-09-18T11:12:08.982Z,30.46
2018-09-18T11:13:08.998Z,30.55
2018-09-18T11:14:08.974Z,30.55
2018-09-18T11:15:08.917Z,30.68
2018-09-18T11:16:09.067Z,30.75
2018-09-18T11:17:08.950Z,30.83
2018-09-18T11:18:08.881Z,30.78
2018-09-18T11:19:08.878Z,31.00
2018-09-18T11:20:08.896Z,30.87
2018-09-18T11:21:08.867Z,30.85
2018-09-18T11:22:08.895Z,31.00
2018-09-18T11:23:08.831Z,30.97
2018-09-18T11:24:08.881Z,31.09
2018-09-18T11:25:08.859Z,31.18
2018-09-18T11:26:08.855Z,31.24
2018-09-18T11:27:08.820Z,31.02
2018-09-18T11:28:08.807Z,31.03
2018-09-18T11:29:08.774Z,31.09
2018-09-18T11:30:08.776Z,31.28
2018-09-18T11:31:08.820Z,31.49
2018-09-18T11:32:08.756Z,31.71
2018-09-18T11:33:08.757Z,32.00
2018-09-18T11:34:08.732Z,32.14
2018-09-18T11:35:08.741Z,32.26
2018-09-18T11:36:08.703Z,32.45
2018-09-18T11:37:08.695Z,32.59
2018-09-18T11:38:08.698Z,32.16
2018-09-18T11:39:08.677Z,32.00
2018-09-18T11:40:08.683Z,32.14
2018-09-18T11:41:08.673Z,32.08
2018-09-18T11:42:08.646Z,31.81
2018-09-18T11:43:08.640Z,31.62
2018-09-18T11:44:08.643Z,31.74
2018-09-18T11:45:08.632Z,32.00
2018-09-18T11:46:08.613Z,32.07
2018-09-18T11:47:08.617Z,32.16
2018-09-18T11:48:08.580Z,32.37
2018-09-18T11:49:08.589Z,32.18
2018-09-18T11:50:08.578Z,32.26
2018-09-18T11:51:08.556Z,32.29
2018-09-18T11:52:08.544Z,32.38
2018-09-18T11:53:08.534Z,32.34
2018-09-18T11:54:08.543Z,32.18
2018-09-18T11:55:08.525Z,32.19
2018-09-18T11:56:08.503Z,32.36
2018-09-18T11:57:08.550Z,32.21
2018-09-18T11:58:08.480Z,32.27
2018-09-18T11:59:08.497Z,32.29
2018-09-18T12:00:08.483Z,32.33
2018-09-18T12:01:08.449Z,32.18
2018-09-18T12:02:08.462Z,32.31
2018-09-18T12:03:08.496Z,32.31
2018-09-18T12:04:08.421Z,32.19
2018-09-18T12:05:08.477Z,32.30
2018-09-18T12:06:08.429Z,32.45
2018-09-18T12:07:08.395Z,32.51
2018-09-18T12:08:08.424Z,32.53
2018-09-18T12:09:08.454Z,32.52
2018-09-18T12:10:08.383Z,32.68
2018-09-18T12:11:08.355Z,32.67
2018-09-18T12:12:08.341Z,32.63
2018-09-18T12:13:08.331Z,32.71
2018-09-18T12:14:08.324Z,33.02
2018-09-18T12:15:08.311Z,33.15
2018-09-18T12:16:08.318Z,32.93
2018-09-18T12:17:08.386Z,32.86
2018-09-18T12:18:08.302Z,32.83
2018-09-18T12:19:08.271Z,32.78
2018-09-18T12:20:08.258Z,32.41
2018-09-18T12:21:08.266Z,32.55
2018-09-18T12:22:08.258Z,32.73
2018-09-18T12:23:08.234Z,32.73
2018-09-18T12:24:08.238Z,32.73
2018-09-18T12:25:08.212Z,32.65
2018-09-18T12:26:08.206Z,32.67
2018-09-18T12:27:08.187Z,32.59
2018-09-18T12:28:08.182Z,32.70
2018-09-18T12:29:08.212Z,32.74
2018-09-18T12:30:08.216Z,32.71
2018-09-18T12:31:08.236Z,32.83
2018-09-18T12:32:08.141Z,32.46
2018-09-18T12:33:08.131Z,32.59
2018-09-18T12:34:08.132Z,32.73
2018-09-18T12:35:08.155Z,32.86
2018-09-18T12:36:08.164Z,33.04
2018-09-18T12:37:08.095Z,33.19
2018-09-18T12:38:08.104Z,33.20
2018-09-18T12:39:08.062Z,33.09
2018-09-18T12:40:08.052Z,32.93
2018-09-18T12:41:08.046Z,32.85
2018-09-18T12:42:08.304Z,32.70
2018-09-18T12:43:08.028Z,32.71
2018-09-18T12:44:08.030Z,32.73
2018-09-18T12:45:08.001Z,32.68
2018-09-18T12:46:08.011Z,32.75
2018-09-18T12:47:07.983Z,32.85
2018-09-18T12:48:08.027Z,32.77
2018-09-18T12:49:07.970Z,32.90
2018-09-18T12:50:08.057Z,32.93
2018-09-18T12:51:07.982Z,33.07
2018-09-18T12:52:07.927Z,33.08